Terminal Aerodrome Forecast
Issued by NWS

Home | Current Version | Previous Version | Text Only | Print | Product List | Glossary On
Versions: 1 2 3 4 5 6 7 8 9 10 11 12 13
000
FTUS45 KABQ 210500
TAFAEG
TAF
KAEG 210525Z 2106/2206 24006KT P6SM SCT150
     FM211900 19008KT P6SM SKC
     FM212300 19012KT P6SM VCSH SCT120
     FM220200 31006KT P6SM BKN120=

USA.gov is the U.S. government's official web portal to all federal, state and local government web resources and services.